createdAt,value
2019-06-26T00:03:25.638Z,7.10
2019-06-26T00:08:30.981Z,7.40
2019-06-26T00:13:36.363Z,6.92
2019-06-26T00:18:44.072Z,7.37
2019-06-26T00:23:49.572Z,7.57
2019-06-26T00:28:55.159Z,7.58
2019-06-26T00:34:00.539Z,7.35
2019-06-26T00:39:07.805Z,7.58
2019-06-26T00:44:13.449Z,7.60
2019-06-26T00:49:18.958Z,6.97
2019-06-26T00:54:24.309Z,7.47
2019-06-26T00:59:29.691Z,8.05
2019-06-26T01:04:38.158Z,8.00
2019-06-26T01:09:43.539Z,7.70
2019-06-26T01:14:48.974Z,7.85
2019-06-26T01:19:54.206Z,8.18
2019-06-26T01:25:00.505Z,8.03
2019-06-26T01:30:07.640Z,7.67
2019-06-26T01:35:13.834Z,7.87
2019-06-26T01:40:19.139Z,7.33
2019-06-26T01:45:24.441Z,7.78
2019-06-26T01:50:29.663Z,8.80
2019-06-26T01:55:35.157Z,8.00
2019-06-26T02:00:44.333Z,7.80
2019-06-26T02:05:49.761Z,7.92
2019-06-26T02:10:55.222Z,7.97
2019-06-26T02:16:00.717Z,8.40
2019-06-26T02:21:06.144Z,7.90
2019-06-26T02:26:11.543Z,7.65
2019-06-26T02:31:16.890Z,8.55
2019-06-26T02:36:22.165Z,8.55
2019-06-26T02:41:27.553Z,7.33
2019-06-26T02:46:32.794Z,8.05
2019-06-26T02:51:38.442Z,8.38
2019-06-26T02:56:43.832Z,8.45
2019-06-26T03:01:49.185Z,8.60
2019-06-26T03:06:54.409Z,8.07
2019-06-26T03:12:00.247Z,8.28
2019-06-26T03:17:05.616Z,8.30
2019-06-26T03:22:11.055Z,8.50
2019-06-26T03:27:16.381Z,8.80
2019-06-26T03:32:21.792Z,8.33
2019-06-26T03:37:27.254Z,8.77
2019-06-26T03:42:32.957Z,8.03
2019-06-26T03:47:38.347Z,8.23
2019-06-26T03:52:43.700Z,8.00
2019-06-26T03:57:48.995Z,8.53
2019-06-26T04:02:54.452Z,8.28
2019-06-26T04:07:59.873Z,8.03
2019-06-26T04:13:06.208Z,7.87
2019-06-26T04:18:11.908Z,7.55
2019-06-26T04:23:17.492Z,7.85
2019-06-26T04:28:22.955Z,8.20
2019-06-26T04:33:28.176Z,8.43
2019-06-26T04:38:33.449Z,8.30
2019-06-26T04:43:38.822Z,8.80
2019-06-26T04:48:44.162Z,8.53
2019-06-26T04:53:49.571Z,8.83
2019-06-26T04:58:54.792Z,9.95
2019-06-26T05:04:00.500Z,9.08
2019-06-26T05:09:07.768Z,11.12
2019-06-26T05:14:13.200Z,11.78
2019-06-26T05:19:18.824Z,12.60
2019-06-26T05:24:24.417Z,12.98
2019-06-26T05:29:29.903Z,13.73
2019-06-26T05:34:35.192Z,15.23
2019-06-26T05:39:40.444Z,15.10
2019-06-26T05:44:46.759Z,17.00
2019-06-26T05:49:52.160Z,17.60
2019-06-26T05:54:57.614Z,17.80
2019-06-26T06:00:03.030Z,19.23
2019-06-26T06:05:08.958Z,19.67
2019-06-26T06:10:15.562Z,19.67
2019-06-26T06:15:20.901Z,19.57
2019-06-26T06:20:35.753Z,19.32
2019-06-26T06:25:40.981Z,20.35
2019-06-26T06:30:46.221Z,19.92
2019-06-26T06:35:52.812Z,20.05
2019-06-26T06:40:58.352Z,19.53
2019-06-26T06:46:03.746Z,17.87
2019-06-26T06:51:09.135Z,17.75
2019-06-26T06:56:16.424Z,17.53
2019-06-26T07:01:21.729Z,17.20
2019-06-26T07:06:27.218Z,17.75
2019-06-26T07:11:32.539Z,17.15
2019-06-26T07:16:38.202Z,16.87
2019-06-26T07:21:43.543Z,17.73
2019-06-26T07:26:49.878Z,16.60
2019-06-26T07:31:55.567Z,17.92
2019-06-26T07:37:00.823Z,16.87
2019-06-26T07:42:06.543Z,18.42
2019-06-26T07:47:22.499Z,17.77
2019-06-26T07:52:19.090Z,17.12
2019-06-26T07:57:24.531Z,18.45
2019-06-26T08:02:30.042Z,19.93
2019-06-26T08:07:35.776Z,18.83
2019-06-26T08:12:41.556Z,20.10
2019-06-26T08:17:59.754Z,18.60
2019-06-26T08:22:54.161Z,18.33
2019-06-26T08:27:59.572Z,17.70
2019-06-26T08:33:05.037Z,18.27
2019-06-26T08:38:15.356Z,16.95
2019-06-26T08:43:17.544Z,16.77
2019-06-26T08:48:38.845Z,15.87
2019-06-26T08:53:31.750Z,16.73
2019-06-26T08:58:37.265Z,16.00
2019-06-26T09:03:42.698Z,16.02
2019-06-26T09:08:49.269Z,15.63
2019-06-26T09:13:54.531Z,13.88
2019-06-26T09:18:59.901Z,13.80
2019-06-26T09:24:05.353Z,12.25
2019-06-26T09:29:10.898Z,12.82
2019-06-26T09:34:16.362Z,12.23
2019-06-26T09:39:21.626Z,11.73
2019-06-26T09:44:26.995Z,11.08
2019-06-26T09:49:32.508Z,10.38
2019-06-26T09:54:37.837Z,10.32
2019-06-26T09:59:46.823Z,10.53
2019-06-26T10:04:52.141Z,8.00
2019-06-26T10:09:57.491Z,10.78
2019-06-26T10:15:02.954Z,9.80
2019-06-26T10:20:09.321Z,8.90
2019-06-26T10:25:14.753Z,8.03
2019-06-26T10:30:20.365Z,7.10
2019-06-26T10:35:25.745Z,7.23
2019-06-26T10:40:31.190Z,7.33
2019-06-26T10:45:36.572Z,6.28
2019-06-26T10:50:49.809Z,6.50
2019-06-26T10:55:49.245Z,5.87
2019-06-26T11:00:54.626Z,5.80
2019-06-26T11:06:02.567Z,5.67
2019-06-26T11:11:07.977Z,6.10
2019-06-26T11:16:14.526Z,6.10
2019-06-26T11:21:20.821Z,5.92
2019-06-26T11:26:26.150Z,6.22
2019-06-26T11:31:31.492Z,6.53
2019-06-26T11:36:37.023Z,5.93
2019-06-26T11:41:42.719Z,5.37
2019-06-26T11:46:48.341Z,5.90
2019-06-26T11:51:54.067Z,6.23
2019-06-26T11:57:01.183Z,6.50
2019-06-26T12:02:08.287Z,6.37
2019-06-26T12:07:13.994Z,6.40
2019-06-26T12:12:19.577Z,6.57
2019-06-26T12:17:24.843Z,6.10
2019-06-26T12:22:30.089Z,6.20
2019-06-26T12:27:35.631Z,6.45
2019-06-26T12:32:42.554Z,6.50
2019-06-26T12:37:48.512Z,6.37
2019-06-26T12:42:55.705Z,6.58
2019-06-26T12:48:00.809Z,6.60
2019-06-26T12:53:06.234Z,6.50
2019-06-26T12:58:15.026Z,6.28
2019-06-26T13:03:18.997Z,6.45
2019-06-26T13:08:24.299Z,6.30
2019-06-26T13:13:30.511Z,6.97
2019-06-26T13:18:36.190Z,6.80
2019-06-26T13:23:41.495Z,6.80
2019-06-26T13:28:47.123Z,7.10
2019-06-26T13:33:52.872Z,6.72
2019-06-26T13:38:58.280Z,7.03
2019-06-26T13:44:03.985Z,7.23
2019-06-26T13:49:09.372Z,7.13
2019-06-26T13:54:14.896Z,7.50
2019-06-26T13:59:22.328Z,7.25
2019-06-26T14:04:27.541Z,7.60
2019-06-26T14:09:33.502Z,7.70
2019-06-26T14:14:56.206Z,7.80
2019-06-26T14:19:46.876Z,7.55
2019-06-26T14:24:54.216Z,8.23
2019-06-26T14:29:59.436Z,7.83
2019-06-26T14:35:05.162Z,7.62
2019-06-26T14:40:10.947Z,7.53
2019-06-26T14:45:16.484Z,7.90
2019-06-26T14:50:23.017Z,7.87
2019-06-26T14:55:28.390Z,8.03
2019-06-26T15:00:33.994Z,7.60
2019-06-26T15:05:40.593Z,7.25
2019-06-26T15:10:46.015Z,7.47
2019-06-26T15:15:54.640Z,7.28
2019-06-26T15:20:58.644Z,7.30
2019-06-26T15:26:04.361Z,7.83
2019-06-26T15:31:10.141Z,7.20
2019-06-26T15:36:15.503Z,7.22
2019-06-26T15:41:21.091Z,7.30
2019-06-26T15:46:30.532Z,7.17
2019-06-26T15:51:36.959Z,7.23
2019-06-26T15:56:42.305Z,7.50
2019-06-26T16:01:47.754Z,7.60
2019-06-26T16:06:53.092Z,7.03
2019-06-26T16:11:59.064Z,7.30
2019-06-26T16:17:09.605Z,7.37
2019-06-26T16:22:31.203Z,7.87
2019-06-26T16:27:23.174Z,7.47
2019-06-26T16:32:28.546Z,7.87
2019-06-26T16:37:33.893Z,7.72
2019-06-26T16:42:39.599Z,7.92
2019-06-26T16:47:45.733Z,8.17
2019-06-26T16:52:51.453Z,8.60
2019-06-26T16:57:56.794Z,8.45
2019-06-26T17:03:02.094Z,8.10
2019-06-26T17:08:07.532Z,8.40
2019-06-26T17:13:12.948Z,8.60
2019-06-26T17:18:18.631Z,8.10
2019-06-26T17:23:24.371Z,7.92
2019-06-26T17:28:29.648Z,7.70
2019-06-26T17:33:35.044Z,7.33
2019-06-26T17:38:40.415Z,8.03
2019-06-26T17:43:46.990Z,7.37
2019-06-26T17:48:52.349Z,7.92
2019-06-26T17:53:57.799Z,8.25
2019-06-26T17:59:03.205Z,8.58
2019-06-26T18:04:08.492Z,8.83
2019-06-26T18:09:13.896Z,9.07
2019-06-26T18:14:19.206Z,9.40
2019-06-26T18:19:24.949Z,10.48
2019-06-26T18:24:30.687Z,9.83
2019-06-26T18:29:36.429Z,10.20
2019-06-26T18:34:41.968Z,10.15
2019-06-26T18:39:47.320Z,11.10
2019-06-26T18:44:52.739Z,11.10
2019-06-26T18:50:02.175Z,11.35
2019-06-26T18:55:07.818Z,11.80
2019-06-26T19:00:15.806Z,12.18
2019-06-26T19:05:21.197Z,12.60
2019-06-26T19:10:26.625Z,12.10
2019-06-26T19:15:31.971Z,12.27
2019-06-26T19:20:37.324Z,12.30
2019-06-26T19:25:42.659Z,12.45
2019-06-26T19:30:48.438Z,12.23
2019-06-26T19:35:54.007Z,12.43
2019-06-26T19:40:59.323Z,12.03
2019-06-26T19:46:04.845Z,12.28
2019-06-26T19:51:10.478Z,12.00
2019-06-26T19:56:20.081Z,12.58
2019-06-26T20:01:24.047Z,19.70
2019-06-26T20:06:29.512Z,12.88
2019-06-26T20:11:37.376Z,13.25
2019-06-26T20:16:43.600Z,12.98
2019-06-26T20:21:49.863Z,13.25
2019-06-26T20:26:55.415Z,13.27
2019-06-26T20:32:01.108Z,13.30
2019-06-26T20:37:06.432Z,13.10
2019-06-26T20:42:11.992Z,13.58
2019-06-26T20:47:17.412Z,13.32
2019-06-26T20:52:22.859Z,13.72
2019-06-26T20:57:28.218Z,13.90
2019-06-26T21:02:33.965Z,13.85
2019-06-26T21:07:42.670Z,13.83
2019-06-26T21:12:48.083Z,13.70
2019-06-26T21:17:54.751Z,14.20
2019-06-26T21:23:00.033Z,13.75
2019-06-26T21:28:06.522Z,13.70
2019-06-26T21:33:12.018Z,13.60
2019-06-26T21:38:21.779Z,14.20
2019-06-26T21:43:27.175Z,13.90
2019-06-26T21:48:32.523Z,13.98
2019-06-26T21:53:37.909Z,14.40
2019-06-26T21:59:01.606Z,14.53
2019-06-26T22:04:25.973Z,14.23
2019-06-26T22:09:33.405Z,14.40
2019-06-26T22:14:40.756Z,14.60
2019-06-26T22:19:46.168Z,14.43
2019-06-26T22:24:51.771Z,14.07
2019-06-26T22:29:57.270Z,14.00
2019-06-26T22:35:03.368Z,13.57
2019-06-26T22:40:08.845Z,14.03
2019-06-26T22:45:14.616Z,13.57
2019-06-26T22:50:19.912Z,13.40
2019-06-26T22:55:25.246Z,14.35
2019-06-26T23:00:30.614Z,13.20
2019-06-26T23:05:35.883Z,12.82
2019-06-26T23:10:41.225Z,12.88
2019-06-26T23:15:46.638Z,15.30
2019-06-26T23:20:51.973Z,15.58
2019-06-26T23:25:57.475Z,12.58
2019-06-26T23:31:02.979Z,14.13
2019-06-26T23:36:08.386Z,14.47
2019-06-26T23:41:13.680Z,14.68
2019-06-26T23:46:19.313Z,11.80
2019-06-26T23:51:24.645Z,12.47
2019-06-26T23:56:40.040Z,13.38
